Time;durP1;ratioP1;P1;durP2;ratioP2;P2;SDS_P1;SDS_P2;PMS_P1;PMS_P2;Temp;Humidity;BMP_temperature;BMP_pressure;BME280_temperature;BME280_humidity;BME280_pressure;Samples;Min_cycle;Max_cycle;Signal;HPM_P1;HPM_P2
2022/03/04 00:01:46;;;;;;;143.45;78.22;;;;;;;22.69;52.06;102766.41;5033949;28;20109;-58
2022/03/04 00:04:12;;;;;;;149.23;83.65;;;;;;;22.75;52.06;102760.31;5033589;28;20059;-59
2022/03/04 00:06:38;;;;;;;134.07;76.15;;;;;;;22.70;52.04;102769.00;5032562;28;20075;-58
2022/03/04 00:09:03;;;;;;;142.45;78.00;;;;;;;22.64;52.89;102766.84;5033772;28;20025;-58
2022/03/04 00:11:29;;;;;;;136.13;75.20;;;;;;;22.70;51.96;102768.16;5033764;28;20124;-59
2022/03/04 00:13:54;;;;;;;141.02;75.57;;;;;;;22.67;52.16;102771.16;5033849;28;20025;-58
2022/03/04 00:16:19;;;;;;;138.63;76.22;;;;;;;22.68;52.54;102764.69;5033442;28;20112;-58
2022/03/04 00:18:45;;;;;;;131.90;73.82;;;;;;;22.72;51.36;102774.34;5033535;28;20060;-60
2022/03/04 00:21:10;;;;;;;138.50;74.15;;;;;;;22.64;52.62;102780.56;5033770;28;20484;-58
2022/03/04 00:23:36;;;;;;;133.18;72.15;;;;;;;22.57;52.22;102781.34;5033434;28;20030;-59
2022/03/04 00:26:03;;;;;;;135.57;75.95;;;;;;;22.67;51.53;102779.38;5033300;28;20037;-59
2022/03/04 00:28:28;;;;;;;136.73;75.43;;;;;;;22.64;51.47;102779.69;5033185;28;20056;-58
2022/03/04 00:30:53;;;;;;;136.07;72.07;;;;;;;22.58;52.54;102780.31;5033034;28;20030;-58
2022/03/04 00:33:18;;;;;;;133.57;76.25;;;;;;;22.52;52.10;102785.41;5033083;28;20033;-59
2022/03/04 00:35:44;;;;;;;138.30;76.85;;;;;;;22.58;51.73;102785.81;5033323;28;20384;-58
2022/03/04 00:38:09;;;;;;;138.85;75.00;;;;;;;22.58;51.62;102794.03;5033104;28;20384;-59
2022/03/04 00:40:34;;;;;;;137.65;73.47;;;;;;;22.52;52.09;102788.16;5033103;28;20487;-58
2022/03/04 00:43:00;;;;;;;129.93;74.75;;;;;;;22.54;51.22;102784.41;5033268;28;20074;-58
2022/03/04 00:45:25;;;;;;;129.48;74.53;;;;;;;22.51;51.52;102780.09;5032907;28;20031;-59
2022/03/04 00:47:50;;;;;;;139.82;77.88;;;;;;;22.51;52.67;102780.94;5033194;28;20022;-58
2022/03/04 00:50:16;;;;;;;137.35;76.38;;;;;;;22.56;51.91;102776.88;5032828;28;20029;-58
2022/03/04 00:52:41;;;;;;;132.18;75.97;;;;;;;22.58;51.64;102791.28;5033077;28;20067;-60
2022/03/04 00:55:06;;;;;;;137.73;75.88;;;;;;;22.56;51.85;102782.38;5032942;28;20021;-58
2022/03/04 00:57:32;;;;;;;137.55;74.30;;;;;;;22.56;51.70;102787.84;5033479;28;20025;-59
2022/03/04 00:59:57;;;;;;;128.32;75.60;;;;;;;22.54;51.67;102784.41;5032640;28;20104;-59
2022/03/04 01:02:22;;;;;;;137.68;75.85;;;;;;;22.54;52.32;102789.88;5032606;28;20518;-57
2022/03/04 01:04:47;;;;;;;133.73;75.15;;;;;;;22.56;52.36;102796.06;5032485;28;20053;-58
2022/03/04 01:07:13;;;;;;;128.02;72.07;;;;;;;22.54;52.29;102792.63;5032502;28;20032;-58
2022/03/04 01:09:38;;;;;;;129.60;72.53;;;;;;;22.52;52.15;102790.91;5032692;28;20412;-58
2022/03/04 01:12:04;;;;;;;131.48;72.55;;;;;;;22.57;52.73;102781.34;5032635;28;20036;-59
2022/03/04 01:14:31;;;;;;;134.30;74.82;;;;;;;22.50;52.48;102784.69;5032448;28;20021;-57
2022/03/04 01:16:56;;;;;;;129.77;70.85;;;;;;;22.54;52.27;102789.88;5032364;28;20025;-58
2022/03/04 01:19:22;;;;;;;131.65;70.88;;;;;;;22.52;52.53;102790.91;5032281;28;20464;-59
2022/03/04 01:21:48;;;;;;;130.95;71.88;;;;;;;22.42;53.03;102787.34;5032585;28;20029;-58
2022/03/04 01:24:13;;;;;;;120.72;68.60;;;;;;;22.44;52.87;102788.03;5032412;28;20041;-58
2022/03/04 01:26:39;;;;;;;134.30;74.22;;;;;;;22.44;52.43;102785.28;5032860;28;20022;-59
2022/03/04 01:29:04;;;;;;;126.40;71.80;;;;;;;22.47;52.11;102795.09;5032516;28;20026;-58
2022/03/04 01:31:29;;;;;;;138.15;75.20;;;;;;;22.46;52.36;102802.44;5032080;28;20029;-58
2022/03/04 01:33:55;;;;;;;130.40;72.72;;;;;;;22.42;52.13;102795.56;5032546;28;20271;-58
2022/03/04 01:36:20;;;;;;;136.77;72.72;;;;;;;22.43;51.11;102793.66;5033357;28;20380;-57
2022/03/04 01:38:46;;;;;;;123.72;70.07;;;;;;;22.39;50.91;102798.59;5036199;28;20576;-57
2022/03/04 01:41:11;;;;;;;135.10;73.03;;;;;;;22.43;50.41;102800.03;5036414;28;20025;-57
2022/03/04 01:43:37;;;;;;;133.30;70.68;;;;;;;22.33;50.74;102796.44;5036498;28;20028;-57
2022/03/04 01:46:12;;;;;;;127.82;73.22;;;;;;;22.40;50.13;102808.56;5036531;28;20544;-58
2022/03/04 01:48:38;;;;;;;130.50;74.15;;;;;;;22.41;50.58;102810.28;5036373;28;20018;-57
2022/03/04 01:51:04;;;;;;;132.65;72.75;;;;;;;22.39;50.60;102808.69;5036412;28;20025;-58
2022/03/04 01:53:29;;;;;;;130.77;72.63;;;;;;;22.40;50.79;102805.81;5036176;28;20032;-59
2022/03/04 01:55:54;;;;;;;144.00;77.90;;;;;;;22.33;50.97;102799.19;5036892;28;20034;-57
2022/03/04 01:58:20;;;;;;;132.63;75.13;;;;;;;22.48;50.53;102796.81;5034669;28;20022;-57
2022/03/04 02:00:45;;;;;;;136.55;74.28;;;;;;;22.49;50.32;102799.41;5035627;28;20419;-59
2022/03/04 02:03:11;;;;;;;140.32;75.70;;;;;;;22.36;50.43;102798.91;5035711;28;20029;-58
2022/03/04 02:05:36;;;;;;;126.95;71.50;;;;;;;22.41;50.86;102796.56;5035961;28;20428;-58
2022/03/04 02:08:01;;;;;;;147.20;78.60;;;;;;;22.39;50.69;102793.13;5036141;28;20085;-58
2022/03/04 02:10:27;;;;;;;125.43;71.30;;;;;;;22.44;50.24;102789.91;5037145;28;20040;-58
2022/03/04 02:12:53;;;;;;;136.48;77.05;;;;;;;22.37;51.39;102784.19;5036392;28;20060;-58
2022/03/04 02:15:18;;;;;;;133.32;72.20;;;;;;;22.48;51.43;102785.84;5035695;28;20112;-57
2022/03/04 02:17:43;;;;;;;132.70;70.00;;;;;;;22.46;51.76;102791.50;5035925;28;20418;-58
2022/03/04 02:20:09;;;;;;;132.38;73.53;;;;;;;22.42;51.94;102790.06;5035750;28;20117;-58
2022/03/04 02:22:35;;;;;;;133.65;74.70;;;;;;;22.48;51.93;102786.72;5035767;28;20029;-57
2022/03/04 02:25:00;;;;;;;138.02;75.53;;;;;;;22.40;51.70;102789.38;5035718;28;20511;-58
2022/03/04 02:27:26;;;;;;;135.20;74.28;;;;;;;22.46;51.57;102788.75;5035559;28;20022;-60
2022/03/04 02:29:51;;;;;;;129.85;70.45;;;;;;;22.45;52.56;102789.75;5034254;28;20025;-58
2022/03/04 02:32:18;;;;;;;129.68;69.57;;;;;;;22.41;52.67;102785.59;5035238;28;20478;-58
2022/03/04 02:34:43;;;;;;;126.13;70.20;;;;;;;22.44;52.26;102779.81;5035648;28;20029;-58
2022/03/04 02:37:10;;;;;;;132.68;73.60;;;;;;;22.43;52.23;102789.06;5035366;28;20021;-57
2022/03/04 02:39:36;;;;;;;128.27;69.90;;;;;;;22.42;52.80;102779.09;5035469;28;20052;-57
2022/03/04 02:42:01;;;;;;;130.05;68.88;;;;;;;22.47;51.99;102775.91;5035493;28;20029;-58
2022/03/04 02:44:27;;;;;;;126.38;68.35;;;;;;;22.43;52.53;102786.31;5035174;28;20040;-58
2022/03/04 02:46:52;;;;;;;133.27;70.55;;;;;;;22.36;52.76;102782.47;5036031;28;20017;-58
2022/03/04 02:49:17;;;;;;;129.40;70.78;;;;;;;22.38;52.40;102782.31;5035046;28;20026;-58
2022/03/04 02:51:42;;;;;;;135.10;71.85;;;;;;;22.44;52.22;102777.06;5035225;28;20373;-58
2022/03/04 02:54:08;;;;;;;127.65;68.45;;;;;;;22.42;51.88;102781.00;5033979;28;20112;-60
2022/03/04 02:56:33;;;;;;;114.65;64.85;;;;;;;22.39;52.56;102784.91;5035043;28;20021;-57
2022/03/04 02:58:59;;;;;;;119.72;67.50;;;;;;;22.41;51.54;102785.59;5035058;28;20025;-58
2022/03/04 03:01:25;;;;;;;120.95;65.32;;;;;;;22.41;51.88;102780.13;5034666;28;20061;-60
2022/03/04 03:03:51;;;;;;;117.85;65.30;;;;;;;22.41;51.98;102780.13;5034860;28;20112;-57
2022/03/04 03:06:16;;;;;;;123.13;71.22;;;;;;;22.40;52.09;102777.53;5034869;28;20542;-58
2022/03/04 03:08:41;;;;;;;124.10;66.65;;;;;;;22.36;52.30;102776.13;5034936;28;20271;-58
2022/03/04 03:11:07;;;;;;;111.95;65.22;;;;;;;22.41;51.46;102784.75;5034944;28;20101;-58
2022/03/04 03:13:32;;;;;;;116.03;63.90;;;;;;;22.39;51.39;102771.19;5034644;28;20610;-58
2022/03/04 03:15:57;;;;;;;117.72;65.13;;;;;;;22.34;51.52;102770.81;5034837;28;20032;-58
2022/03/04 03:18:23;;;;;;;116.45;65.82;;;;;;;22.42;51.12;102775.50;5034543;28;20018;-58
2022/03/04 03:20:48;;;;;;;109.47;61.22;;;;;;;22.32;51.42;102772.81;5034748;28;20099;-59
2022/03/04 03:23:13;;;;;;;110.20;62.58;;;;;;;22.34;51.50;102768.06;5034081;28;20053;-58
2022/03/04 03:25:39;;;;;;;113.55;64.32;;;;;;;22.40;51.47;102775.66;5034610;28;20033;-58
2022/03/04 03:28:04;;;;;;;115.53;65.90;;;;;;;22.35;51.53;102764.31;5034838;28;20029;-59
2022/03/04 03:30:31;;;;;;;117.75;65.57;;;;;;;22.34;51.38;102779.03;5033189;28;20032;-57
2022/03/04 03:32:56;;;;;;;119.28;66.70;;;;;;;22.39;51.82;102775.81;5033337;28;20420;-58
2022/03/04 03:35:22;;;;;;;117.45;63.95;;;;;;;22.33;51.50;102780.00;5034856;28;20548;-59
2022/03/04 03:37:47;;;;;;;118.57;63.63;;;;;;;22.32;52.10;102777.41;5034347;28;20349;-58
2022/03/04 03:40:13;;;;;;;130.48;67.97;;;;;;;22.34;51.97;102778.13;5034235;28;20104;-59
2022/03/04 03:42:39;;;;;;;120.97;64.07;;;;;;;22.43;51.54;102791.78;5034463;28;20040;-58
2022/03/04 03:45:06;;;;;;;119.88;63.28;;;;;;;22.35;52.85;102779.88;5034246;28;20156;-58
2022/03/04 03:47:32;;;;;;;112.38;60.13;;;;;;;22.33;52.70;102785.47;5033970;28;20116;-59
2022/03/04 03:49:58;;;;;;;109.53;61.33;;;;;;;22.34;52.61;102778.13;5034205;28;20036;-58
2022/03/04 03:52:23;;;;;;;121.80;61.83;;;;;;;22.34;52.40;102754.34;5033641;28;20029;-58
2022/03/04 03:54:48;;;;;;;112.70;61.67;;;;;;;22.37;52.34;102762.28;5033682;28;20040;-60
2022/03/04 03:57:14;;;;;;;114.72;58.63;;;;;;;22.32;52.08;102753.63;5033583;28;20032;-58
2022/03/04 03:59:39;;;;;;;115.00;62.47;;;;;;;22.35;52.22;102797.19;5033493;28;20021;-58
2022/03/04 04:02:05;;;;;;;105.53;57.60;;;;;;;22.31;51.92;102784.78;5034022;28;20428;-58
2022/03/04 04:04:34;;;;;;;107.53;58.28;;;;;;;22.34;50.89;102786.34;5033127;28;20052;-58
2022/03/04 04:07:04;;;;;;;104.45;59.10;;;;;;;22.28;51.85;102782.34;5033753;28;20036;-58
2022/03/04 04:09:30;;;;;;;102.53;55.92;;;;;;;22.28;50.96;102785.09;5033925;28;20116;-59
2022/03/04 04:11:55;;;;;;;103.28;56.97;;;;;;;22.32;50.44;102770.06;5033849;28;20112;-58
2022/03/04 04:14:20;;;;;;;100.75;57.58;;;;;;;22.27;49.96;102766.91;5033540;28;20053;-58
2022/03/04 04:16:46;;;;;;;104.38;56.67;;;;;;;22.32;49.56;102769.19;5033689;28;20040;-58
2022/03/04 04:19:11;;;;;;;111.75;59.83;;;;;;;22.27;49.50;102777.88;5033442;28;20108;-58
2022/03/04 04:21:36;;;;;;;106.32;57.15;;;;;;;22.29;49.63;102775.00;5033532;28;20099;-59
2022/03/04 04:24:02;;;;;;;108.00;59.35;;;;;;;22.24;49.11;102767.22;5033333;28;20033;-58
2022/03/04 04:26:27;;;;;;;105.85;57.15;;;;;;;22.30;48.83;102783.06;5033265;28;20022;-58
2022/03/04 04:28:53;;;;;;;108.50;59.17;;;;;;;22.30;49.21;102783.06;5033590;28;20068;-59
2022/03/04 04:31:19;;;;;;;107.13;58.88;;;;;;;22.34;49.36;102792.72;5033179;28;20022;-58
2022/03/04 04:33:44;;;;;;;110.10;59.05;;;;;;;22.32;49.58;102783.75;5033447;28;20112;-58
2022/03/04 04:36:09;;;;;;;109.53;58.40;;;;;;;22.35;49.11;102785.38;5033270;28;20104;-59
2022/03/04 04:38:35;;;;;;;110.10;57.90;;;;;;;22.33;49.43;102793.72;5033124;28;20018;-58
2022/03/04 04:41:00;;;;;;;109.68;57.90;;;;;;;22.35;50.01;102786.22;5033264;28;20049;-58
2022/03/04 04:43:26;;;;;;;99.82;54.58;;;;;;;22.36;50.17;102795.31;5033279;28;20029;-58
2022/03/04 04:45:53;;;;;;;101.78;55.05;;;;;;;22.35;50.59;102791.72;5033250;28;20026;-58
2022/03/04 04:48:18;;;;;;;96.97;53.63;;;;;;;22.33;50.93;102792.84;5032889;28;20070;-59
2022/03/04 04:50:43;;;;;;;103.97;55.95;;;;;;;22.31;50.68;102801.22;5033137;28;20061;-58
2022/03/04 04:53:09;;;;;;;98.63;53.25;;;;;;;22.30;50.93;102809.59;5032575;28;20445;-59
2022/03/04 04:55:34;;;;;;;103.45;54.13;;;;;;;22.30;50.89;102810.47;5032938;28;20032;-60
2022/03/04 04:57:59;;;;;;;99.70;53.03;;;;;;;22.31;51.96;102817.66;5032938;28;20468;-58
2022/03/04 05:00:25;;;;;;;98.43;50.83;;;;;;;22.28;51.78;102828.94;5032730;28;20592;-58
2022/03/04 05:02:51;;;;;;;100.13;52.78;;;;;;;22.52;51.14;102821.06;5032916;28;20048;-58
2022/03/04 05:05:16;;;;;;;101.13;53.33;;;;;;;22.57;51.34;102817.84;5032340;28;20096;-59
2022/03/04 05:07:42;;;;;;;107.35;55.97;;;;;;;22.56;51.39;102821.59;5032857;28;20013;-59
2022/03/04 05:10:08;;;;;;;104.40;54.67;;;;;;;22.64;51.28;102824.44;5031421;28;20126;-58
2022/03/04 05:12:33;;;;;;;98.90;53.42;;;;;;;22.68;51.64;102819.53;5031789;28;20029;-58
2022/03/04 05:14:58;;;;;;;98.82;52.20;;;;;;;22.73;51.51;102819.94;5032726;28;20388;-59
2022/03/04 05:17:24;;;;;;;99.82;52.88;;;;;;;22.78;51.23;102814.84;5032396;28;20029;-58
2022/03/04 05:19:50;;;;;;;99.05;51.53;;;;;;;22.76;52.11;102806.75;5032739;28;20408;-58
2022/03/04 05:22:15;;;;;;;97.18;50.45;;;;;;;22.84;51.95;102813.38;5032509;28;20029;-60
2022/03/04 05:24:40;;;;;;;102.70;53.22;;;;;;;22.83;51.72;102823.50;5032648;28;20041;-58
2022/03/04 05:27:06;;;;;;;96.75;51.20;;;;;;;22.88;51.41;102821.16;5032502;28;20358;-58
2022/03/04 05:29:31;;;;;;;103.00;51.13;;;;;;;22.94;51.74;102823.28;5032446;28;20022;-58
2022/03/04 05:31:56;;;;;;;103.18;52.58;;;;;;;22.92;52.27;102817.09;5032541;28;20031;-58
2022/03/04 05:34:22;;;;;;;101.30;52.28;;;;;;;22.90;52.16;102813.66;5032318;28;20021;-59
2022/03/04 05:36:47;;;;;;;97.00;50.88;;;;;;;22.95;52.41;102822.25;5032536;28;20056;-58
2022/03/04 05:39:12;;;;;;;103.20;53.13;;;;;;;22.96;52.50;102824.00;5030923;28;20061;-58
2022/03/04 05:41:37;;;;;;;102.70;52.30;;;;;;;22.92;52.75;102825.31;5032399;28;20021;-60
2022/03/04 05:44:05;;;;;;;100.38;50.08;;;;;;;22.99;51.71;102818.19;5032403;28;20464;-59
2022/03/04 05:46:32;;;;;;;106.25;53.38;;;;;;;23.00;51.56;102819.03;5032261;28;20060;-58
2022/03/04 05:48:57;;;;;;;101.75;54.28;;;;;;;22.99;52.22;102825.56;5032318;28;20021;-60
2022/03/04 05:51:22;;;;;;;104.78;53.95;;;;;;;22.99;52.45;102829.16;5031953;28;20040;-58
2022/03/04 05:53:49;;;;;;;103.15;54.38;;;;;;;23.04;52.89;102826.84;5033152;28;20031;-58
2022/03/04 05:56:15;;;;;;;106.07;54.13;;;;;;;23.03;53.36;102838.84;5034372;28;20040;-59
2022/03/04 05:58:40;;;;;;;114.70;57.45;;;;;;;23.06;52.57;102827.53;5032692;28;20025;-59
2022/03/04 06:01:08;;;;;;;108.18;54.10;;;;;;;23.03;53.46;102840.72;5032170;28;20026;-59
2022/03/04 06:03:34;;;;;;;100.38;53.42;;;;;;;23.04;53.13;102837.81;5032410;28;20135;-59
2022/03/04 06:06:00;;;;;;;114.68;58.80;;;;;;;23.04;53.93;102842.44;5032012;28;20057;-59
2022/03/04 06:08:25;;;;;;;108.35;55.35;;;;;;;23.05;53.24;102835.94;5032014;28;20468;-60
2022/03/04 06:10:51;;;;;;;109.93;57.42;;;;;;;23.01;53.76;102849.09;5032162;28;20104;-59
2022/03/04 06:13:17;;;;;;;108.82;57.15;;;;;;;23.05;52.65;102845.03;5031926;28;20033;-59
2022/03/04 06:15:42;;;;;;;111.40;58.33;;;;;;;22.95;53.28;102855.19;5032146;28;20040;-59
2022/03/04 06:18:08;;;;;;;115.35;58.22;;;;;;;22.97;52.78;102858.63;5032050;28;20021;-59
2022/03/04 06:20:33;;;;;;;115.57;59.90;;;;;;;22.96;52.32;102862.38;5031959;28;20033;-59
2022/03/04 06:22:58;;;;;;;113.03;56.67;;;;;;;22.99;51.54;102867.56;5032452;28;20025;-59
2022/03/04 06:25:24;;;;;;;116.90;59.72;;;;;;;22.92;52.04;102871.94;5035595;28;20119;-59
2022/03/04 06:27:58;;;;;;;109.63;58.95;;;;;;;22.95;51.21;102870.78;5035750;28;20035;-60
2022/03/04 06:30:26;;;;;;;110.05;55.50;;;;;;;22.90;51.32;102871.25;5035805;28;20029;-59
2022/03/04 06:33:29;;;;;;;112.40;56.33;;;;;;;22.93;50.42;102884.66;5035726;28;20025;-59
2022/03/04 06:35:37;;;;;;;109.15;56.20;;;;;;;22.96;50.19;102884.34;5036250;28;20029;-59
2022/03/04 06:38:02;;;;;;;112.05;56.35;;;;;;;22.90;50.87;102884.97;5035564;28;20540;-59
2022/03/04 06:40:28;;;;;;;111.63;54.97;;;;;;;22.97;50.13;102886.06;5035263;28;20025;-59
2022/03/04 06:42:53;;;;;;;106.85;53.90;;;;;;;22.97;50.28;102885.19;5035822;28;20100;-60
2022/03/04 06:45:19;;;;;;;100.38;51.13;;;;;;;22.92;49.96;102882.06;5035197;28;20030;-59
2022/03/04 06:47:44;;;;;;;94.82;48.38;;;;;;;23.04;49.17;102892.69;5035383;28;20091;-59
2022/03/04 06:50:10;;;;;;;85.30;46.42;;;;;;;23.02;49.37;102894.72;5031912;28;20465;-60
2022/03/04 06:52:35;;;;;;;100.63;47.20;;;;;;;23.07;49.29;102897.00;5030675;28;20527;-59
2022/03/04 06:55:00;;;;;;;89.78;45.67;;;;;;;23.06;49.29;102898.88;5029243;28;20469;-59
2022/03/04 06:57:25;;;;;;;90.00;47.42;;;;;;;23.08;48.98;102905.06;5031737;28;20026;-59
2022/03/04 06:59:51;;;;;;;86.15;43.55;;;;;;;23.07;49.59;102900.59;5033692;28;20030;-59
2022/03/04 07:02:16;;;;;;;74.30;40.70;;;;;;;23.13;49.61;102906.47;5032785;28;20037;-60
2022/03/04 07:04:42;;;;;;;79.55;41.08;;;;;;;23.09;49.64;102912.28;5030692;28;20405;-59
2022/03/04 07:07:07;;;;;;;78.40;38.92;;;;;;;23.14;49.55;102914.56;5034815;28;20135;-59
2022/03/04 07:09:32;;;;;;;76.30;38.90;;;;;;;23.10;50.16;102908.50;5032756;28;20460;-59
2022/03/04 07:11:57;;;;;;;75.20;37.28;;;;;;;23.13;49.79;102911.97;5033644;28;20063;-58
2022/03/04 07:14:23;;;;;;;73.45;37.63;;;;;;;23.20;49.89;102913.09;5034373;28;20384;-58
2022/03/04 07:16:48;;;;;;;76.30;36.40;;;;;;;23.16;50.78;102918.00;5034787;28;20071;-58
2022/03/04 07:19:13;;;;;;;65.13;34.42;;;;;;;23.16;50.82;102922.63;5031946;28;20472;-58
2022/03/04 07:21:38;;;;;;;79.00;36.33;;;;;;;23.11;51.39;102918.47;5030361;28;20028;-59
2022/03/04 07:24:04;;;;;;;72.63;34.85;;;;;;;23.19;50.71;102919.59;5033239;28;20048;-58
2022/03/04 07:26:29;;;;;;;63.33;33.35;;;;;;;23.13;51.32;102920.19;5030419;28;20526;-58
2022/03/04 07:28:54;;;;;;;66.38;31.00;;;;;;;23.10;51.14;102919.50;5033303;28;20033;-60
2022/03/04 07:31:20;;;;;;;69.18;34.00;;;;;;;23.08;52.29;102921.53;5030561;28;20037;-58
2022/03/04 07:33:45;;;;;;;61.05;31.25;;;;;;;23.10;51.53;102924.97;5032038;28;20515;-57
2022/03/04 07:36:10;;;;;;;64.85;30.90;;;;;;;23.12;51.43;102930.31;5033228;28;20029;-59
2022/03/04 07:38:36;;;;;;;64.40;33.17;;;;;;;23.14;51.13;102930.16;5033010;28;20465;-58
2022/03/04 07:41:01;;;;;;;57.63;28.13;;;;;;;23.17;51.48;102924.34;5034044;28;20120;-58
2022/03/04 07:43:26;;;;;;;59.47;30.77;;;;;;;23.16;51.42;102933.59;5028734;28;20026;-57
2022/03/04 07:45:52;;;;;;;56.33;27.50;;;;;;;23.19;51.40;102938.81;5032319;28;20036;-57
2022/03/04 07:48:17;;;;;;;59.72;27.98;;;;;;;23.19;50.98;102936.94;5032544;28;20037;-62
2022/03/04 07:50:42;;;;;;;56.65;26.45;;;;;;;23.30;50.51;102938.56;5032055;28;20025;-58
2022/03/04 07:53:08;;;;;;;52.97;26.85;;;;;;;23.25;50.67;102933.56;5049129;28;20060;-57
2022/03/04 07:55:33;;;;;;;51.53;24.80;;;;;;;23.28;50.53;102933.25;5043986;28;20021;-57
2022/03/04 07:57:59;;;;;;;48.75;23.85;;;;;;;23.28;50.38;102927.75;5031723;28;20048;-57
2022/03/04 08:00:25;;;;;;;43.53;22.90;;;;;;;23.18;50.58;102931.56;5032749;28;20075;-57
2022/03/04 08:02:52;;;;;;;45.97;24.08;;;;;;;23.19;51.21;102927.84;5032666;28;20060;-57
2022/03/04 08:05:17;;;;;;;46.63;21.88;;;;;;;23.22;50.28;102935.75;5032468;28;20556;-58
2022/03/04 08:07:42;;;;;;;44.00;20.65;;;;;;;23.20;50.98;102935.06;5033770;28;20025;-59
2022/03/04 08:10:09;;;;;;;42.17;17.98;;;;;;;23.21;51.23;102942.25;5031896;28;20021;-58
2022/03/04 08:12:36;;;;;;;41.53;19.42;;;;;;;23.11;52.28;102934.94;5031690;28;20064;-57
2022/03/04 08:15:03;;;;;;;39.40;18.42;;;;;;;23.21;50.00;102939.53;5031494;28;20099;-58
2022/03/04 08:17:30;;;;;;;39.47;17.05;;;;;;;23.23;50.17;102941.09;5032950;28;20051;-57
2022/03/04 08:19:55;;;;;;;38.13;16.30;;;;;;;23.26;49.92;102945.41;5033164;28;20033;-58
2022/03/04 08:22:21;;;;;;;31.05;15.35;;;;;;;23.23;50.45;102945.72;5029527;28;20024;-58
2022/03/04 08:24:46;;;;;;;36.53;15.40;;;;;;;23.25;50.09;102943.69;5032193;28;20451;-57
2022/03/04 08:27:11;;;;;;;30.42;15.65;;;;;;;23.22;50.68;102949.47;5030700;28;20033;-58
2022/03/04 08:29:36;;;;;;;32.58;13.73;;;;;;;23.23;50.60;102945.72;5040264;28;20410;-57
2022/03/04 08:32:02;;;;;;;31.10;14.45;;;;;;;23.16;50.15;102939.94;5039690;28;20028;-57
2022/03/04 08:34:27;;;;;;;28.92;12.93;;;;;;;23.21;49.73;102942.25;5039642;28;20036;-58
2022/03/04 08:36:53;;;;;;;34.22;14.23;;;;;;;23.25;49.61;102954.66;5035763;28;20026;-57
2022/03/04 08:39:18;;;;;;;26.25;12.38;;;;;;;23.26;48.99;102948.16;5034690;28;20040;-57
2022/03/04 08:41:43;;;;;;;23.92;10.95;;;;;;;23.23;49.51;102956.69;5038913;28;20064;-57
2022/03/04 08:44:09;;;;;;;26.20;11.23;;;;;;;23.27;48.15;102964.44;5036233;28;20025;-57
2022/03/04 08:46:36;;;;;;;26.52;11.70;;;;;;;23.26;48.71;102950.88;5033350;28;20025;-57
2022/03/04 08:49:02;;;;;;;23.67;10.20;;;;;;;23.27;48.49;102958.09;5033112;28;20048;-57
2022/03/04 08:51:27;;;;;;;28.48;11.30;;;;;;;23.29;48.13;102961.56;5032755;28;20155;-56
2022/03/04 08:53:54;;;;;;;24.73;11.00;;;;;;;23.29;47.41;102961.56;5033155;28;20472;-59
2022/03/04 08:56:19;;;;;;;22.88;10.18;;;;;;;23.30;47.67;102963.28;5032773;28;20025;-57
2022/03/04 08:58:45;;;;;;;24.48;9.45;;;;;;;23.24;47.89;102966.66;5032954;28;20507;-57
2022/03/04 09:01:10;;;;;;;22.73;9.57;;;;;;;23.29;47.21;102972.53;5032849;28;20464;-57
2022/03/04 09:03:35;;;;;;;22.75;8.85;;;;;;;23.31;46.77;102971.34;5032732;28;20486;-56
2022/03/04 09:06:00;;;;;;;22.17;8.70;;;;;;;23.24;47.21;102969.38;5033071;28;20099;-58
2022/03/04 09:08:26;;;;;;;21.38;7.75;;;;;;;23.32;46.68;102974.97;5031363;28;20059;-57
2022/03/04 09:10:51;;;;;;;22.67;7.97;;;;;;;23.36;45.89;102973.66;5033452;28;20144;-57
2022/03/04 09:13:16;;;;;;;19.33;7.53;;;;;;;23.38;45.84;102972.50;5032562;28;20362;-59
2022/03/04 09:15:42;;;;;;;19.30;7.97;;;;;;;23.34;45.81;102981.16;5032733;28;20396;-58
2022/03/04 09:18:08;;;;;;;22.70;8.25;;;;;;;23.42;46.33;102979.38;5032819;28;20033;-57
2022/03/04 09:20:33;;;;;;;22.83;7.80;;;;;;;23.37;46.33;102975.38;5032448;28;20029;-58
2022/03/04 09:22:58;;;;;;;23.17;8.23;;;;;;;23.39;46.63;102981.59;5032686;28;20022;-58
2022/03/04 09:25:26;;;;;;;20.20;8.95;;;;;;;23.36;46.70;102984.66;5032326;28;20036;-58
2022/03/04 09:27:52;;;;;;;16.77;6.47;;;;;;;23.46;45.94;102976.31;5033114;28;20108;-57
2022/03/04 09:30:18;;;;;;;18.83;7.53;;;;;;;23.40;46.64;102977.81;5032099;28;20108;-58
2022/03/04 09:32:43;;;;;;;16.80;6.88;;;;;;;23.42;46.94;102978.53;5032562;28;20503;-59
2022/03/04 09:35:09;;;;;;;21.52;6.43;;;;;;;23.49;46.28;102979.63;5032417;28;20044;-57
2022/03/04 09:37:35;;;;;;;18.67;6.25;;;;;;;23.44;46.62;102979.22;5032489;28;20021;-59
2022/03/04 09:40:01;;;;;;;18.27;6.53;;;;;;;23.51;47.75;102979.47;5032451;28;20030;-58
2022/03/04 09:42:27;;;;;;;15.05;5.97;;;;;;;23.41;48.07;102979.53;5032169;28;20026;-58
2022/03/04 09:44:52;;;;;;;16.85;6.03;;;;;;;23.42;47.85;102968.41;5032483;28;20151;-57
2022/03/04 09:47:21;;;;;;;16.83;6.00;;;;;;;23.46;47.42;102971.69;5031852;28;20040;-58
2022/03/04 09:49:47;;;;;;;19.40;6.40;;;;;;;23.48;47.55;102979.78;5032388;28;20029;-57
2022/03/04 09:52:12;;;;;;;18.25;5.80;;;;;;;23.47;47.57;102965.19;5032270;28;20041;-60
2022/03/04 09:54:37;;;;;;;19.00;5.95;;;;;;;23.47;47.71;102970.69;5032279;28;20024;-58
2022/03/04 09:57:03;;;;;;;19.00;5.90;;;;;;;23.47;47.86;102970.69;5032244;28;20037;-57
2022/03/04 09:59:28;;;;;;;17.55;5.32;;;;;;;23.43;48.81;102969.28;5035133;28;20028;-58
2022/03/04 10:01:58;;;;;;;17.23;5.65;;;;;;;23.42;48.27;102971.16;5036298;28;20025;-57
2022/03/04 10:04:27;;;;;;;14.57;5.32;;;;;;;23.44;47.88;102971.00;5035811;28;20046;-58
2022/03/04 10:06:53;;;;;;;13.85;5.22;;;;;;;23.46;48.16;102963.47;5036243;28;20021;-58
2022/03/04 10:09:43;;;;;;;19.40;4.75;;;;;;;23.46;47.75;102962.59;5035913;28;20032;-58
2022/03/04 10:12:10;;;;;;;19.55;5.68;;;;;;;23.51;48.19;102972.09;5035979;28;20029;-58
2022/03/04 10:15:05;;;;;;;18.92;5.40;;;;;;;23.41;48.48;102963.94;5035978;28;20093;-57
2022/03/04 10:17:33;;;;;;;16.05;4.88;;;;;;;23.41;47.85;102960.34;5035466;28;20377;-58
2022/03/04 10:20:01;;;;;;;13.93;4.90;;;;;;;23.39;48.43;102962.38;5035877;28;20039;-58
2022/03/04 10:22:46;;;;;;;17.58;5.57;;;;;;;23.42;47.49;102956.56;5035690;28;20104;-58
2022/03/04 10:25:21;;;;;;;18.80;6.22;;;;;;;23.39;47.78;102965.97;5035847;28;20066;-58
2022/03/04 10:27:47;;;;;;;16.40;5.05;;;;;;;23.36;47.13;102962.69;5035818;28;20104;-58
2022/03/04 10:30:15;;;;;;;20.90;6.07;;;;;;;23.44;47.25;102953.66;5034334;28;20033;-58
2022/03/04 10:32:40;;;;;;;16.92;5.13;;;;;;;23.37;46.93;102959.78;5035782;28;20021;-58
2022/03/04 10:35:11;;;;;;;14.05;4.57;;;;;;;23.37;47.87;102948.81;5035609;28;20152;-59
2022/03/04 10:37:50;;;;;;;17.27;5.82;;;;;;;23.40;47.21;102953.97;5035552;28;20026;-58
2022/03/04 10:40:24;;;;;;;21.48;6.20;;;;;;;23.45;47.62;102953.50;5035322;28;20053;-58
2022/03/04 10:42:49;;;;;;;12.52;3.95;;;;;;;23.38;47.94;102949.66;5035554;28;20408;-59
2022/03/04 10:45:23;;;;;;;18.90;5.32;;;;;;;23.41;48.41;102946.59;5035270;28;20040;-58
2022/03/04 10:48:02;;;;;;;13.07;4.65;;;;;;;23.40;48.59;102943.00;5033923;28;20053;-58
2022/03/04 10:50:38;;;;;;;13.23;4.35;;;;;;;23.45;48.50;102942.53;5035175;28;20502;-60
2022/03/04 10:53:18;;;;;;;14.65;4.63;;;;;;;23.46;48.14;102944.25;5034076;28;20518;-58
2022/03/04 10:55:46;;;;;;;18.27;5.30;;;;;;;23.37;48.18;102936.97;5035418;28;20555;-58
2022/03/04 10:58:41;;;;;;;15.52;4.60;;;;;;;23.35;48.29;102934.38;5035119;28;20075;-60
2022/03/04 11:01:11;;;;;;;;;;;;;;;23.36;48.33;102925.13;4993930;28;20038;-58
2022/03/04 11:03:39;;;;;;;17.27;5.18;;;;;;;23.41;48.54;102932.88;4993264;28;19956;-58